sensor_id;sensor_type;location;lat;lon;timestamp;P1;durP1;ratioP1;P2;durP2;ratioP2
65405;SDS011;52016;51.228;-2.322;2022-12-15T00:01:39;30.42;;;18.52;;
65405;SDS011;52016;51.228;-2.322;2022-12-15T00:05:40;33.47;;;18.33;;
65405;SDS011;52016;51.228;-2.322;2022-12-15T00:09:40;28.73;;;17.38;;
65405;SDS011;52016;51.228;-2.322;2022-12-15T00:13:41;27.70;;;18.30;;
65405;SDS011;52016;51.228;-2.322;2022-12-15T00:17:41;27.00;;;17.35;;
65405;SDS011;52016;51.228;-2.322;2022-12-15T00:21:42;27.70;;;17.92;;
65405;SDS011;52016;51.228;-2.322;2022-12-15T00:25:42;31.13;;;18.45;;
65405;SDS011;52016;51.228;-2.322;2022-12-15T00:29:43;27.90;;;18.83;;
65405;SDS011;52016;51.228;-2.322;2022-12-15T00:33:44;31.35;;;18.80;;
65405;SDS011;52016;51.228;-2.322;2022-12-15T00:37:45;27.25;;;17.92;;
65405;SDS011;52016;51.228;-2.322;2022-12-15T00:41:45;27.38;;;17.65;;
65405;SDS011;52016;51.228;-2.322;2022-12-15T00:45:27;29.48;;;16.83;;
65405;SDS011;52016;51.228;-2.322;2022-12-15T00:49:29;25.00;;;16.45;;
65405;SDS011;52016;51.228;-2.322;2022-12-15T00:53:30;29.15;;;17.23;;
65405;SDS011;52016;51.228;-2.322;2022-12-15T00:57:30;24.05;;;16.17;;
65405;SDS011;52016;51.228;-2.322;2022-12-15T01:01:31;26.17;;;15.75;;
65405;SDS011;52016;51.228;-2.322;2022-12-15T01:05:32;26.13;;;15.35;;
65405;SDS011;52016;51.228;-2.322;2022-12-15T01:09:33;22.63;;;15.07;;
65405;SDS011;52016;51.228;-2.322;2022-12-15T01:13:33;27.88;;;15.65;;
65405;SDS011;52016;51.228;-2.322;2022-12-15T01:17:34;26.85;;;14.93;;
65405;SDS011;52016;51.228;-2.322;2022-12-15T01:21:35;28.85;;;15.40;;
65405;SDS011;52016;51.228;-2.322;2022-12-15T01:25:18;23.73;;;14.07;;
65405;SDS011;52016;51.228;-2.322;2022-12-15T01:29:02;23.20;;;14.38;;
65405;SDS011;52016;51.228;-2.322;2022-12-15T01:32:44;22.02;;;13.93;;
65405;SDS011;52016;51.228;-2.322;2022-12-15T01:36:26;23.17;;;13.85;;
65405;SDS011;52016;51.228;-2.322;2022-12-15T01:40:10;23.88;;;13.18;;
65405;SDS011;52016;51.228;-2.322;2022-12-15T01:44:19;19.80;;;13.60;;
65405;SDS011;52016;51.228;-2.322;2022-12-15T01:48:09;27.10;;;16.00;;
65405;SDS011;52016;51.228;-2.322;2022-12-15T01:52:00;29.02;;;16.15;;
65405;SDS011;52016;51.228;-2.322;2022-12-15T01:55:44;24.10;;;15.38;;
65405;SDS011;52016;51.228;-2.322;2022-12-15T01:59:31;25.80;;;15.57;;
65405;SDS011;52016;51.228;-2.322;2022-12-15T02:03:16;26.40;;;15.02;;
65405;SDS011;52016;51.228;-2.322;2022-12-15T02:06:59;22.48;;;14.65;;
65405;SDS011;52016;51.228;-2.322;2022-12-15T02:14:46;18.65;;;13.00;;
65405;SDS011;52016;51.228;-2.322;2022-12-15T02:18:32;21.27;;;13.27;;
65405;SDS011;52016;51.228;-2.322;2022-12-15T02:30:40;25.73;;;13.63;;
65405;SDS011;52016;51.228;-2.322;2022-12-15T02:34:27;24.77;;;13.90;;
65405;SDS011;52016;51.228;-2.322;2022-12-15T02:38:55;20.50;;;13.60;;
65405;SDS011;52016;51.228;-2.322;2022-12-15T02:42:30;23.17;;;14.13;;
65405;SDS011;52016;51.228;-2.322;2022-12-15T02:46:17;21.45;;;13.43;;
65405;SDS011;52016;51.228;-2.322;2022-12-15T02:58:00;24.65;;;14.98;;
65405;SDS011;52016;51.228;-2.322;2022-12-15T03:01:56;21.98;;;14.15;;
65405;SDS011;52016;51.228;-2.322;2022-12-15T03:05:42;22.27;;;14.25;;
65405;SDS011;52016;51.228;-2.322;2022-12-15T03:09:24;20.35;;;13.45;;
65405;SDS011;52016;51.228;-2.322;2022-12-15T03:13:06;20.23;;;13.73;;
65405;SDS011;52016;51.228;-2.322;2022-12-15T03:16:48;22.45;;;13.05;;
65405;SDS011;52016;51.228;-2.322;2022-12-15T03:20:30;21.15;;;13.25;;
65405;SDS011;52016;51.228;-2.322;2022-12-15T03:24:12;20.90;;;13.35;;
65405;SDS011;52016;51.228;-2.322;2022-12-15T03:27:54;20.90;;;13.85;;
65405;SDS011;52016;51.228;-2.322;2022-12-15T03:31:36;20.52;;;14.45;;
65405;SDS011;52016;51.228;-2.322;2022-12-15T03:35:18;21.67;;;14.20;;
65405;SDS011;52016;51.228;-2.322;2022-12-15T03:39:00;23.02;;;15.48;;
65405;SDS011;52016;51.228;-2.322;2022-12-15T03:42:43;23.88;;;14.05;;
65405;SDS011;52016;51.228;-2.322;2022-12-15T03:46:31;27.77;;;14.75;;
65405;SDS011;52016;51.228;-2.322;2022-12-15T03:50:14;26.85;;;15.60;;
65405;SDS011;52016;51.228;-2.322;2022-12-15T03:53:58;23.75;;;15.82;;
65405;SDS011;52016;51.228;-2.322;2022-12-15T03:57:40;23.10;;;15.10;;
65405;SDS011;52016;51.228;-2.322;2022-12-15T04:01:26;21.67;;;14.40;;
65405;SDS011;52016;51.228;-2.322;2022-12-15T04:05:12;21.67;;;15.32;;
65405;SDS011;52016;51.228;-2.322;2022-12-15T04:08:57;19.13;;;13.20;;
65405;SDS011;52016;51.228;-2.322;2022-12-15T04:12:39;24.50;;;15.00;;
65405;SDS011;52016;51.228;-2.322;2022-12-15T04:16:21;23.17;;;14.85;;
65405;SDS011;52016;51.228;-2.322;2022-12-15T04:20:04;21.95;;;14.60;;
65405;SDS011;52016;51.228;-2.322;2022-12-15T04:23:50;23.77;;;15.55;;
65405;SDS011;52016;51.228;-2.322;2022-12-15T04:27:51;24.58;;;15.32;;
65405;SDS011;52016;51.228;-2.322;2022-12-15T04:31:52;20.77;;;14.77;;
65405;SDS011;52016;51.228;-2.322;2022-12-15T04:35:52;24.95;;;14.68;;
65405;SDS011;52016;51.228;-2.322;2022-12-15T04:39:53;18.77;;;13.40;;
65405;SDS011;52016;51.228;-2.322;2022-12-15T04:43:55;21.85;;;14.48;;
65405;SDS011;52016;51.228;-2.322;2022-12-15T04:47:55;20.45;;;13.57;;
65405;SDS011;52016;51.228;-2.322;2022-12-15T04:51:56;24.90;;;14.38;;
65405;SDS011;52016;51.228;-2.322;2022-12-15T04:55:57;20.85;;;13.73;;
65405;SDS011;52016;51.228;-2.322;2022-12-15T04:59:59;24.40;;;15.20;;
65405;SDS011;52016;51.228;-2.322;2022-12-15T05:03:59;22.10;;;14.38;;
65405;SDS011;52016;51.228;-2.322;2022-12-15T05:08:00;26.50;;;14.73;;
65405;SDS011;52016;51.228;-2.322;2022-12-15T05:12:00;22.40;;;15.65;;
65405;SDS011;52016;51.228;-2.322;2022-12-15T05:16:01;22.58;;;13.43;;
65405;SDS011;52016;51.228;-2.322;2022-12-15T05:20:03;21.67;;;14.63;;
65405;SDS011;52016;51.228;-2.322;2022-12-15T05:24:04;20.48;;;13.82;;
65405;SDS011;52016;51.228;-2.322;2022-12-15T05:28:05;64.88;;;34.25;;
65405;SDS011;52016;51.228;-2.322;2022-12-15T05:32:06;27.38;;;16.23;;
65405;SDS011;52016;51.228;-2.322;2022-12-15T05:35:48;32.50;;;18.73;;
65405;SDS011;52016;51.228;-2.322;2022-12-15T05:39:30;27.13;;;16.20;;
65405;SDS011;52016;51.228;-2.322;2022-12-15T05:43:12;27.45;;;15.18;;
65405;SDS011;52016;51.228;-2.322;2022-12-15T05:46:54;23.77;;;14.32;;
65405;SDS011;52016;51.228;-2.322;2022-12-15T05:50:36;21.42;;;14.90;;
65405;SDS011;52016;51.228;-2.322;2022-12-15T05:54:18;23.38;;;14.15;;
65405;SDS011;52016;51.228;-2.322;2022-12-15T05:58:00;22.95;;;14.55;;
65405;SDS011;52016;51.228;-2.322;2022-12-15T06:01:42;23.35;;;15.25;;
65405;SDS011;52016;51.228;-2.322;2022-12-15T06:05:25;25.27;;;15.13;;
65405;SDS011;52016;51.228;-2.322;2022-12-15T06:09:07;23.90;;;14.68;;
65405;SDS011;52016;51.228;-2.322;2022-12-15T06:12:50;29.40;;;15.02;;
65405;SDS011;52016;51.228;-2.322;2022-12-15T06:16:32;24.42;;;13.93;;
65405;SDS011;52016;51.228;-2.322;2022-12-15T06:20:15;22.55;;;14.27;;
65405;SDS011;52016;51.228;-2.322;2022-12-15T06:23:57;21.58;;;14.07;;
65405;SDS011;52016;51.228;-2.322;2022-12-15T06:27:41;23.67;;;13.55;;
65405;SDS011;52016;51.228;-2.322;2022-12-15T06:31:23;20.65;;;14.43;;
65405;SDS011;52016;51.228;-2.322;2022-12-15T06:35:06;21.70;;;14.63;;
65405;SDS011;52016;51.228;-2.322;2022-12-15T06:38:49;30.88;;;21.40;;
65405;SDS011;52016;51.228;-2.322;2022-12-15T06:42:31;24.80;;;16.38;;
65405;SDS011;52016;51.228;-2.322;2022-12-15T06:46:13;21.85;;;15.07;;
65405;SDS011;52016;51.228;-2.322;2022-12-15T06:49:55;23.38;;;14.00;;
65405;SDS011;52016;51.228;-2.322;2022-12-15T06:53:38;18.73;;;13.35;;
65405;SDS011;52016;51.228;-2.322;2022-12-15T06:57:28;22.42;;;14.05;;
65405;SDS011;52016;51.228;-2.322;2022-12-15T07:01:10;18.08;;;13.45;;
65405;SDS011;52016;51.228;-2.322;2022-12-15T07:04:52;23.02;;;13.23;;
65405;SDS011;52016;51.228;-2.322;2022-12-15T07:08:35;19.13;;;13.10;;
65405;SDS011;52016;51.228;-2.322;2022-12-15T07:12:22;18.30;;;12.93;;
65405;SDS011;52016;51.228;-2.322;2022-12-15T07:16:04;21.10;;;12.60;;
65405;SDS011;52016;51.228;-2.322;2022-12-15T07:19:47;29.77;;;17.63;;
65405;SDS011;52016;51.228;-2.322;2022-12-15T07:23:30;19.67;;;12.65;;
65405;SDS011;52016;51.228;-2.322;2022-12-15T07:27:32;20.45;;;13.90;;
65405;SDS011;52016;51.228;-2.322;2022-12-15T07:31:14;27.48;;;17.15;;
65405;SDS011;52016;51.228;-2.322;2022-12-15T07:34:56;19.88;;;12.90;;
65405;SDS011;52016;51.228;-2.322;2022-12-15T07:38:38;20.60;;;14.30;;
65405;SDS011;52016;51.228;-2.322;2022-12-15T07:42:20;23.33;;;14.88;;
65405;SDS011;52016;51.228;-2.322;2022-12-15T07:46:03;32.15;;;18.05;;
65405;SDS011;52016;51.228;-2.322;2022-12-15T07:49:45;27.48;;;18.33;;
65405;SDS011;52016;51.228;-2.322;2022-12-15T07:53:30;28.98;;;18.67;;
65405;SDS011;52016;51.228;-2.322;2022-12-15T07:57:13;23.73;;;14.52;;
65405;SDS011;52016;51.228;-2.322;2022-12-15T08:00:58;33.05;;;19.73;;
65405;SDS011;52016;51.228;-2.322;2022-12-15T08:04:41;25.73;;;18.37;;
65405;SDS011;52016;51.228;-2.322;2022-12-15T08:08:23;25.45;;;16.60;;
65405;SDS011;52016;51.228;-2.322;2022-12-15T08:12:05;29.88;;;17.05;;
65405;SDS011;52016;51.228;-2.322;2022-12-15T08:15:51;26.63;;;18.20;;
65405;SDS011;52016;51.228;-2.322;2022-12-15T08:19:34;39.70;;;22.57;;
65405;SDS011;52016;51.228;-2.322;2022-12-15T08:23:17;25.88;;;17.83;;
65405;SDS011;52016;51.228;-2.322;2022-12-15T08:26:59;36.70;;;22.25;;
65405;SDS011;52016;51.228;-2.322;2022-12-15T08:30:41;34.67;;;22.20;;
65405;SDS011;52016;51.228;-2.322;2022-12-15T08:34:23;35.47;;;19.95;;
65405;SDS011;52016;51.228;-2.322;2022-12-15T08:38:05;36.33;;;21.48;;
65405;SDS011;52016;51.228;-2.322;2022-12-15T08:41:48;40.47;;;26.23;;
65405;SDS011;52016;51.228;-2.322;2022-12-15T08:45:30;37.13;;;24.90;;
65405;SDS011;52016;51.228;-2.322;2022-12-15T08:49:12;41.55;;;27.83;;
65405;SDS011;52016;51.228;-2.322;2022-12-15T08:53:01;40.55;;;26.38;;
65405;SDS011;52016;51.228;-2.322;2022-12-15T08:57:03;40.13;;;25.05;;
65405;SDS011;52016;51.228;-2.322;2022-12-15T09:00:45;34.70;;;23.25;;
65405;SDS011;52016;51.228;-2.322;2022-12-15T09:04:28;35.35;;;23.75;;
65405;SDS011;52016;51.228;-2.322;2022-12-15T09:08:10;43.58;;;28.15;;
65405;SDS011;52016;51.228;-2.322;2022-12-15T09:11:52;40.92;;;23.23;;
65405;SDS011;52016;51.228;-2.322;2022-12-15T09:15:34;40.33;;;23.10;;
65405;SDS011;52016;51.228;-2.322;2022-12-15T09:19:36;43.00;;;27.13;;
65405;SDS011;52016;51.228;-2.322;2022-12-15T09:23:18;39.10;;;25.85;;
65405;SDS011;52016;51.228;-2.322;2022-12-15T09:27:00;39.88;;;24.67;;
65405;SDS011;52016;51.228;-2.322;2022-12-15T09:30:43;36.88;;;25.40;;
65405;SDS011;52016;51.228;-2.322;2022-12-15T09:34:25;27.05;;;18.83;;
65405;SDS011;52016;51.228;-2.322;2022-12-15T09:38:07;26.17;;;19.75;;
65405;SDS011;52016;51.228;-2.322;2022-12-15T09:41:51;27.55;;;16.23;;
65405;SDS011;52016;51.228;-2.322;2022-12-15T09:45:38;33.90;;;18.60;;
65405;SDS011;52016;51.228;-2.322;2022-12-15T09:53:09;32.42;;;20.15;;
65405;SDS011;52016;51.228;-2.322;2022-12-15T10:09:44;70.38;;;38.47;;
65405;SDS011;52016;51.228;-2.322;2022-12-15T10:17:24;46.03;;;26.10;;
65405;SDS011;52016;51.228;-2.322;2022-12-15T10:21:13;43.33;;;27.48;;
65405;SDS011;52016;51.228;-2.322;2022-12-15T10:24:56;31.50;;;19.23;;
65405;SDS011;52016;51.228;-2.322;2022-12-15T10:36:48;24.42;;;15.48;;
65405;SDS011;52016;51.228;-2.322;2022-12-15T10:40:41;25.58;;;16.80;;
65405;SDS011;52016;51.228;-2.322;2022-12-15T10:44:35;19.25;;;12.00;;
65405;SDS011;52016;51.228;-2.322;2022-12-15T10:48:18;19.80;;;12.50;;
65405;SDS011;52016;51.228;-2.322;2022-12-15T10:52:00;23.75;;;11.85;;
65405;SDS011;52016;51.228;-2.322;2022-12-15T10:55:43;26.98;;;15.10;;
65405;SDS011;52016;51.228;-2.322;2022-12-15T10:59:31;37.92;;;21.63;;
65405;SDS011;52016;51.228;-2.322;2022-12-15T11:03:25;29.75;;;17.58;;
65405;SDS011;52016;51.228;-2.322;2022-12-15T11:07:11;29.60;;;16.15;;
65405;SDS011;52016;51.228;-2.322;2022-12-15T11:10:56;29.48;;;15.38;;
65405;SDS011;52016;51.228;-2.322;2022-12-15T11:14:57;32.88;;;15.90;;
65405;SDS011;52016;51.228;-2.322;2022-12-15T11:18:52;28.38;;;14.43;;
65405;SDS011;52016;51.228;-2.322;2022-12-15T11:23:27;24.38;;;14.82;;
65405;SDS011;52016;51.228;-2.322;2022-12-15T11:26:57;17.55;;;10.65;;
65405;SDS011;52016;51.228;-2.322;2022-12-15T11:30:49;24.10;;;12.60;;
65405;SDS011;52016;51.228;-2.322;2022-12-15T11:34:43;14.82;;;9.60;;
65405;SDS011;52016;51.228;-2.322;2022-12-15T11:38:34;16.00;;;9.68;;
65405;SDS011;52016;51.228;-2.322;2022-12-15T11:54:54;15.32;;;8.57;;
65405;SDS011;52016;51.228;-2.322;2022-12-15T12:10:32;14.55;;;8.82;;
65405;SDS011;52016;51.228;-2.322;2022-12-15T12:14:40;14.43;;;8.02;;
65405;SDS011;52016;51.228;-2.322;2022-12-15T12:18:50;12.35;;;6.85;;
65405;SDS011;52016;51.228;-2.322;2022-12-15T12:22:39;14.45;;;7.90;;
65405;SDS011;52016;51.228;-2.322;2022-12-15T12:26:37;12.15;;;7.88;;
65405;SDS011;52016;51.228;-2.322;2022-12-15T12:30:36;12.40;;;6.82;;
65405;SDS011;52016;51.228;-2.322;2022-12-15T12:34:31;13.68;;;6.38;;
65405;SDS011;52016;51.228;-2.322;2022-12-15T12:38:21;11.38;;;7.10;;
65405;SDS011;52016;51.228;-2.322;2022-12-15T12:46:54;9.20;;;6.70;;
65405;SDS011;52016;51.228;-2.322;2022-12-15T12:50:39;13.55;;;7.65;;
65405;SDS011;52016;51.228;-2.322;2022-12-15T12:58:37;16.00;;;10.00;;
65405;SDS011;52016;51.228;-2.322;2022-12-15T13:06:02;13.18;;;8.23;;
65405;SDS011;52016;51.228;-2.322;2022-12-15T13:13:49;14.98;;;7.72;;
65405;SDS011;52016;51.228;-2.322;2022-12-15T13:17:37;15.50;;;9.23;;
65405;SDS011;52016;51.228;-2.322;2022-12-15T13:25:59;13.90;;;8.65;;
65405;SDS011;52016;51.228;-2.322;2022-12-15T13:41:29;12.90;;;7.63;;
65405;SDS011;52016;51.228;-2.322;2022-12-15T13:45:27;14.55;;;7.32;;
65405;SDS011;52016;51.228;-2.322;2022-12-15T13:53:09;12.05;;;8.07;;
65405;SDS011;52016;51.228;-2.322;2022-12-15T13:57:01;15.23;;;8.30;;
65405;SDS011;52016;51.228;-2.322;2022-12-15T14:00:55;15.02;;;7.75;;
65405;SDS011;52016;51.228;-2.322;2022-12-15T14:04:39;25.80;;;14.48;;
65405;SDS011;52016;51.228;-2.322;2022-12-15T14:08:22;21.92;;;10.77;;
65405;SDS011;52016;51.228;-2.322;2022-12-15T14:12:06;17.83;;;9.80;;
65405;SDS011;52016;51.228;-2.322;2022-12-15T14:19:56;16.50;;;8.68;;
65405;SDS011;52016;51.228;-2.322;2022-12-15T14:23:43;15.18;;;9.38;;
65405;SDS011;52016;51.228;-2.322;2022-12-15T14:27:45;16.70;;;8.30;;
65405;SDS011;52016;51.228;-2.322;2022-12-15T14:31:31;11.95;;;8.25;;
65405;SDS011;52016;51.228;-2.322;2022-12-15T14:35:48;13.30;;;8.80;;
65405;SDS011;52016;51.228;-2.322;2022-12-15T14:39:41;15.23;;;8.40;;
65405;SDS011;52016;51.228;-2.322;2022-12-15T14:43:34;14.73;;;8.80;;
65405;SDS011;52016;51.228;-2.322;2022-12-15T14:47:19;18.10;;;10.38;;
65405;SDS011;52016;51.228;-2.322;2022-12-15T14:51:08;16.45;;;9.25;;
65405;SDS011;52016;51.228;-2.322;2022-12-15T14:54:54;19.23;;;10.27;;
65405;SDS011;52016;51.228;-2.322;2022-12-15T15:02:24;18.25;;;10.90;;
65405;SDS011;52016;51.228;-2.322;2022-12-15T15:09:52;17.10;;;10.80;;
65405;SDS011;52016;51.228;-2.322;2022-12-15T15:13:36;15.35;;;8.18;;
65405;SDS011;52016;51.228;-2.322;2022-12-15T15:17:22;16.52;;;9.32;;
65405;SDS011;52016;51.228;-2.322;2022-12-15T15:21:21;11.60;;;7.68;;
65405;SDS011;52016;51.228;-2.322;2022-12-15T15:33:21;13.63;;;7.40;;
65405;SDS011;52016;51.228;-2.322;2022-12-15T15:37:04;20.52;;;9.52;;
65405;SDS011;52016;51.228;-2.322;2022-12-15T15:40:59;24.92;;;9.50;;
65405;SDS011;52016;51.228;-2.322;2022-12-15T15:44:51;18.15;;;8.98;;
65405;SDS011;52016;51.228;-2.322;2022-12-15T15:48:34;15.63;;;9.20;;
65405;SDS011;52016;51.228;-2.322;2022-12-15T15:52:28;38.67;;;17.48;;
65405;SDS011;52016;51.228;-2.322;2022-12-15T15:56:13;10.38;;;6.25;;
65405;SDS011;52016;51.228;-2.322;2022-12-15T15:59:56;12.85;;;6.43;;
65405;SDS011;52016;51.228;-2.322;2022-12-15T16:03:38;9.65;;;5.22;;
65405;SDS011;52016;51.228;-2.322;2022-12-15T16:07:22;9.60;;;6.15;;
65405;SDS011;52016;51.228;-2.322;2022-12-15T16:11:09;10.95;;;5.40;;
65405;SDS011;52016;51.228;-2.322;2022-12-15T16:14:53;13.50;;;6.45;;
65405;SDS011;52016;51.228;-2.322;2022-12-15T16:18:36;14.65;;;6.40;;
65405;SDS011;52016;51.228;-2.322;2022-12-15T16:22:18;12.65;;;6.65;;
65405;SDS011;52016;51.228;-2.322;2022-12-15T16:26:02;12.43;;;7.72;;
65405;SDS011;52016;51.228;-2.322;2022-12-15T16:29:45;13.57;;;8.18;;
65405;SDS011;52016;51.228;-2.322;2022-12-15T16:33:27;14.20;;;7.95;;
65405;SDS011;52016;51.228;-2.322;2022-12-15T16:37:17;25.48;;;13.00;;
65405;SDS011;52016;51.228;-2.322;2022-12-15T16:41:11;22.25;;;12.10;;
65405;SDS011;52016;51.228;-2.322;2022-12-15T16:44:55;21.92;;;12.77;;
65405;SDS011;52016;51.228;-2.322;2022-12-15T16:48:39;19.80;;;12.73;;
65405;SDS011;52016;51.228;-2.322;2022-12-15T16:52:21;19.90;;;9.70;;
65405;SDS011;52016;51.228;-2.322;2022-12-15T16:56:04;19.58;;;10.02;;
65405;SDS011;52016;51.228;-2.322;2022-12-15T16:59:48;19.73;;;9.07;;
65405;SDS011;52016;51.228;-2.322;2022-12-15T17:03:30;21.83;;;12.27;;
65405;SDS011;52016;51.228;-2.322;2022-12-15T17:07:12;24.05;;;11.77;;
65405;SDS011;52016;51.228;-2.322;2022-12-15T17:11:00;16.48;;;8.70;;
65405;SDS011;52016;51.228;-2.322;2022-12-15T17:14:43;16.98;;;8.50;;
65405;SDS011;52016;51.228;-2.322;2022-12-15T17:18:25;16.92;;;8.45;;
65405;SDS011;52016;51.228;-2.322;2022-12-15T17:22:08;17.52;;;9.73;;
65405;SDS011;52016;51.228;-2.322;2022-12-15T17:25:54;19.80;;;10.00;;
65405;SDS011;52016;51.228;-2.322;2022-12-15T17:29:56;16.17;;;8.88;;
65405;SDS011;52016;51.228;-2.322;2022-12-15T17:33:40;19.40;;;10.85;;
65405;SDS011;52016;51.228;-2.322;2022-12-15T17:37:22;19.23;;;11.13;;
65405;SDS011;52016;51.228;-2.322;2022-12-15T17:41:12;23.10;;;13.17;;
65405;SDS011;52016;51.228;-2.322;2022-12-15T17:45:23;25.23;;;13.80;;
65405;SDS011;52016;51.228;-2.322;2022-12-15T17:49:05;23.27;;;13.30;;
65405;SDS011;52016;51.228;-2.322;2022-12-15T17:52:47;25.05;;;14.30;;
65405;SDS011;52016;51.228;-2.322;2022-12-15T17:56:29;26.95;;;16.55;;
65405;SDS011;52016;51.228;-2.322;2022-12-15T18:00:19;42.30;;;24.95;;
65405;SDS011;52016;51.228;-2.322;2022-12-15T18:04:12;40.67;;;24.13;;
65405;SDS011;52016;51.228;-2.322;2022-12-15T18:07:55;46.00;;;26.60;;
65405;SDS011;52016;51.228;-2.322;2022-12-15T18:11:38;63.20;;;34.03;;
65405;SDS011;52016;51.228;-2.322;2022-12-15T18:15:22;55.20;;;31.25;;
65405;SDS011;52016;51.228;-2.322;2022-12-15T18:19:06;56.30;;;32.97;;
65405;SDS011;52016;51.228;-2.322;2022-12-15T18:22:48;66.07;;;36.38;;
65405;SDS011;52016;51.228;-2.322;2022-12-15T18:26:31;44.05;;;25.15;;
65405;SDS011;52016;51.228;-2.322;2022-12-15T18:30:22;56.38;;;29.90;;
65405;SDS011;52016;51.228;-2.322;2022-12-15T18:34:13;39.90;;;23.13;;
65405;SDS011;52016;51.228;-2.322;2022-12-15T18:37:59;42.33;;;22.58;;
65405;SDS011;52016;51.228;-2.322;2022-12-15T18:41:41;43.05;;;24.73;;
65405;SDS011;52016;51.228;-2.322;2022-12-15T18:45:24;50.03;;;28.70;;
65405;SDS011;52016;51.228;-2.322;2022-12-15T18:49:09;67.05;;;33.45;;
65405;SDS011;52016;51.228;-2.322;2022-12-15T18:52:55;78.63;;;39.40;;
65405;SDS011;52016;51.228;-2.322;2022-12-15T19:00:23;77.53;;;40.25;;
65405;SDS011;52016;51.228;-2.322;2022-12-15T19:04:08;72.32;;;39.55;;
65405;SDS011;52016;51.228;-2.322;2022-12-15T19:07:50;54.97;;;33.63;;
65405;SDS011;52016;51.228;-2.322;2022-12-15T19:11:32;51.90;;;28.65;;
65405;SDS011;52016;51.228;-2.322;2022-12-15T19:15:15;54.80;;;29.25;;
65405;SDS011;52016;51.228;-2.322;2022-12-15T19:18:58;61.63;;;30.75;;
65405;SDS011;52016;51.228;-2.322;2022-12-15T19:23:10;48.03;;;27.70;;
65405;SDS011;52016;51.228;-2.322;2022-12-15T19:26:54;62.10;;;34.58;;
65405;SDS011;52016;51.228;-2.322;2022-12-15T19:30:36;61.40;;;34.83;;
65405;SDS011;52016;51.228;-2.322;2022-12-15T19:34:22;44.83;;;26.67;;
65405;SDS011;52016;51.228;-2.322;2022-12-15T19:38:04;51.92;;;29.52;;
65405;SDS011;52016;51.228;-2.322;2022-12-15T19:41:47;47.60;;;26.60;;
65405;SDS011;52016;51.228;-2.322;2022-12-15T19:45:30;48.75;;;29.67;;
65405;SDS011;52016;51.228;-2.322;2022-12-15T19:49:13;60.05;;;32.85;;
65405;SDS011;52016;51.228;-2.322;2022-12-15T19:52:58;57.72;;;27.08;;
65405;SDS011;52016;51.228;-2.322;2022-12-15T19:56:41;47.35;;;27.38;;
65405;SDS011;52016;51.228;-2.322;2022-12-15T20:00:24;140.55;;;66.55;;
65405;SDS011;52016;51.228;-2.322;2022-12-15T20:04:07;141.93;;;67.78;;
65405;SDS011;52016;51.228;-2.322;2022-12-15T20:07:52;101.85;;;55.83;;
65405;SDS011;52016;51.228;-2.322;2022-12-15T20:11:35;98.00;;;53.80;;
65405;SDS011;52016;51.228;-2.322;2022-12-15T20:15:18;110.75;;;59.63;;
65405;SDS011;52016;51.228;-2.322;2022-12-15T20:19:03;107.00;;;55.45;;
65405;SDS011;52016;51.228;-2.322;2022-12-15T20:22:46;80.75;;;45.63;;
65405;SDS011;52016;51.228;-2.322;2022-12-15T20:26:31;56.65;;;34.67;;
65405;SDS011;52016;51.228;-2.322;2022-12-15T20:30:23;61.78;;;32.38;;
65405;SDS011;52016;51.228;-2.322;2022-12-15T20:34:07;54.40;;;29.35;;
65405;SDS011;52016;51.228;-2.322;2022-12-15T20:37:49;53.30;;;30.73;;
65405;SDS011;52016;51.228;-2.322;2022-12-15T20:41:32;55.47;;;31.73;;
65405;SDS011;52016;51.228;-2.322;2022-12-15T20:45:15;48.95;;;29.05;;
65405;SDS011;52016;51.228;-2.322;2022-12-15T20:48:59;37.63;;;22.23;;
65405;SDS011;52016;51.228;-2.322;2022-12-15T20:52:42;41.22;;;23.60;;
65405;SDS011;52016;51.228;-2.322;2022-12-15T20:56:24;44.33;;;24.48;;
65405;SDS011;52016;51.228;-2.322;2022-12-15T21:00:08;66.38;;;34.97;;
65405;SDS011;52016;51.228;-2.322;2022-12-15T21:03:53;73.22;;;43.50;;
65405;SDS011;52016;51.228;-2.322;2022-12-15T21:07:36;86.25;;;51.00;;
65405;SDS011;52016;51.228;-2.322;2022-12-15T21:11:19;93.00;;;51.88;;
65405;SDS011;52016;51.228;-2.322;2022-12-15T21:15:12;129.25;;;59.03;;
65405;SDS011;52016;51.228;-2.322;2022-12-15T21:18:55;79.05;;;38.83;;
65405;SDS011;52016;51.228;-2.322;2022-12-15T21:22:57;67.50;;;36.15;;
65405;SDS011;52016;51.228;-2.322;2022-12-15T21:26:39;46.33;;;23.83;;
65405;SDS011;52016;51.228;-2.322;2022-12-15T21:30:21;43.70;;;24.40;;
65405;SDS011;52016;51.228;-2.322;2022-12-15T21:34:04;44.08;;;25.92;;
65405;SDS011;52016;51.228;-2.322;2022-12-15T21:37:46;46.65;;;27.27;;
65405;SDS011;52016;51.228;-2.322;2022-12-15T21:41:31;48.22;;;29.70;;
65405;SDS011;52016;51.228;-2.322;2022-12-15T21:45:16;45.55;;;28.60;;
65405;SDS011;52016;51.228;-2.322;2022-12-15T21:48:59;66.15;;;36.40;;
65405;SDS011;52016;51.228;-2.322;2022-12-15T21:52:59;52.38;;;31.45;;
65405;SDS011;52016;51.228;-2.322;2022-12-15T21:56:41;43.15;;;25.00;;
65405;SDS011;52016;51.228;-2.322;2022-12-15T22:00:24;39.28;;;22.92;;
65405;SDS011;52016;51.228;-2.322;2022-12-15T22:04:06;40.92;;;24.08;;
65405;SDS011;52016;51.228;-2.322;2022-12-15T22:08:00;34.70;;;20.42;;
65405;SDS011;52016;51.228;-2.322;2022-12-15T22:11:59;32.70;;;19.95;;
65405;SDS011;52016;51.228;-2.322;2022-12-15T22:15:42;37.50;;;21.42;;
65405;SDS011;52016;51.228;-2.322;2022-12-15T22:19:24;33.78;;;21.40;;
65405;SDS011;52016;51.228;-2.322;2022-12-15T22:23:06;36.45;;;22.33;;
65405;SDS011;52016;51.228;-2.322;2022-12-15T22:26:48;38.13;;;22.25;;
65405;SDS011;52016;51.228;-2.322;2022-12-15T22:30:30;42.78;;;25.52;;
65405;SDS011;52016;51.228;-2.322;2022-12-15T22:34:14;49.15;;;28.77;;
65405;SDS011;52016;51.228;-2.322;2022-12-15T22:38:07;51.97;;;30.42;;
65405;SDS011;52016;51.228;-2.322;2022-12-15T22:41:49;50.55;;;27.13;;
65405;SDS011;52016;51.228;-2.322;2022-12-15T22:45:34;51.78;;;28.42;;
65405;SDS011;52016;51.228;-2.322;2022-12-15T22:49:35;53.92;;;31.75;;
65405;SDS011;52016;51.228;-2.322;2022-12-15T22:53:18;53.20;;;32.70;;
65405;SDS011;52016;51.228;-2.322;2022-12-15T22:57:02;58.42;;;35.00;;
65405;SDS011;52016;51.228;-2.322;2022-12-15T23:00:45;62.80;;;34.53;;
65405;SDS011;52016;51.228;-2.322;2022-12-15T23:04:28;58.30;;;34.40;;
65405;SDS011;52016;51.228;-2.322;2022-12-15T23:08:10;61.67;;;34.45;;
65405;SDS011;52016;51.228;-2.322;2022-12-15T23:11:52;57.50;;;32.42;;
65405;SDS011;52016;51.228;-2.322;2022-12-15T23:15:35;57.08;;;31.60;;
65405;SDS011;52016;51.228;-2.322;2022-12-15T23:19:35;54.85;;;30.80;;
65405;SDS011;52016;51.228;-2.322;2022-12-15T23:23:19;58.75;;;33.80;;
65405;SDS011;52016;51.228;-2.322;2022-12-15T23:27:02;73.68;;;37.65;;
65405;SDS011;52016;51.228;-2.322;2022-12-15T23:30:50;65.30;;;35.63;;
65405;SDS011;52016;51.228;-2.322;2022-12-15T23:34:33;62.05;;;32.80;;
65405;SDS011;52016;51.228;-2.322;2022-12-15T23:38:15;54.97;;;31.45;;
65405;SDS011;52016;51.228;-2.322;2022-12-15T23:41:57;35.95;;;20.52;;
65405;SDS011;52016;51.228;-2.322;2022-12-15T23:45:40;31.27;;;16.30;;
65405;SDS011;52016;51.228;-2.322;2022-12-15T23:49:23;25.98;;;14.95;;
65405;SDS011;52016;51.228;-2.322;2022-12-15T23:53:05;23.33;;;13.85;;
65405;SDS011;52016;51.228;-2.322;2022-12-15T23:56:48;23.63;;;14.57;;
